ADDS METAR Data INFO
IDs: Format: Raw Decoded Include TAF

Data at: 2106 UTC 19 Jul 2018

KOLS 192054Z AUTO VRB03KT 10SM TS FEW060 32/18 A3010 RMK AO2 LTG DSNT SE TSB44 SLP119 T03220183 55009
KOLS 192050Z AUTO 29007KT 10SM TS CLR 32/18 A3010 RMK AO2 LTG DSNT SE TSB44
KOLS 192018Z AUTO 27011G16KT 10SM VCTS CLR 34/19 A3009 RMK AO2 LTG DSNT E T03390194
KOLS 191954Z AUTO 28009KT 10SM CLR 33/19 A3011 RMK AO2 LTG DSNT E SLP119 T03330194
KOLS 191854Z AUTO 26009KT 10SM CLR 33/19 A3013 RMK AO2 SLP126 T03280189
KOLS 191754Z AUTO 30006KT 10SM CLR 31/19 A3015 RMK AO2 SLP135 T03110189 10311 20200 58007
KOLS 191654Z AUTO 27005KT 10SM CLR 28/19 A3016 RMK AO2 SLP142 T02830189
KOLS 191554Z AUTO VRB03KT 10SM CLR 27/18 A3017 RMK AO2 SLP147 T02670183
KOLS 191454Z AUTO 00000KT 10SM CLR 25/19 A3017 RMK AO2 SLP149 T02500194 51009
KOLS 191354Z AUTO 00000KT 10SM CLR 23/19 A3017 RMK AO2 SLP148 T02330189
KOLS 191254Z AUTO 01003KT 10SM CLR 21/19 A3015 RMK AO2 SLP143 T02060189
KOLS 191154Z AUTO 00000KT 10SM CLR 21/19 A3014 RMK AO2 SLP134 T02060189 10233 20206 56002
KOLS 191054Z AUTO 09004KT 10SM CLR 21/19 A3014 RMK AO2 SLP131 T02110189
KOLS 190954Z AUTO 00000KT 10SM CLR 21/19 A3014 RMK AO2 SLP131 T02110194
KOLS 190854Z AUTO 00000KT 10SM CLR 22/19 A3015 RMK AO2 SLP134 T02220194 58006
KOLS 190754Z AUTO 00000KT 10SM CLR 23/20 A3015 RMK AO2 SLP136 T02280200
KOLS 190654Z AUTO 00000KT 10SM CLR 23/20 A3016 RMK AO2 SLP141 T02330200 403440194
KOLS 190554Z AUTO 00000KT 10SM FEW110 23/20 A3017 RMK AO2 SLP144 T02330200 10322 20233 50009
KOLS 190454Z AUTO 14003KT 10SM FEW050 FEW060 24/19 A3017 RMK AO2 SLP146 T02390194
KOLS 190354Z AUTO 24003KT 10SM FEW050 24/19 A3016 RMK AO2 SLP144 T02440194
KOLS 190254Z AUTO 32003KT 10SM SCT055 25/19 A3014 RMK AO2 SLP139 T02500189 53017
KOLS 190154Z AUTO 04005KT 10SM FEW080 26/19 A3012 RMK AO2 SLP135 T02610189
KOLS 190054Z AUTO VRB06G16KT 10SM BKN060 BKN080 28/18 A3009 RMK AO2 LTG DSNT NW SLP125 T02780183
KOLS 182354Z AUTO 01004KT 10SM BKN070 31/16 A3008 RMK AO2 LTG DSNT N AND NE SLP115 T03110161 10344 20283 56019
KOLS 182344Z AUTO VRB04KT 10SM BKN070 33/16 A3009 RMK AO2 LTG DSNT N T03280156
KOLS 182303Z AUTO 22007KT 10SM VCTS BKN080 OVC095 33/15 A3010 RMK AO2 LTG DSNT NE T03330150
KOLS 182254Z AUTO 10SM FEW070 BKN090 33/16 A3010 RMK AO2 LTG DSNT NE AND E SLP117 T03330156
KOLS 182237Z AUTO 24007KT 10SM VCTS SCT070 BKN090 33/15 A3010 RMK AO2 LTG DSNT NE AND E T03330150
KOLS 182154Z AUTO VRB06KT 10SM BKN065 33/16 A3012 RMK AO2 SLP124 T03330156
KOLS 182054Z AUTO VRB05KT 10SM FEW120 32/16 A3014 RMK AO2 LTG DSNT N AND NW SLP133 T03220156 56016
KOLS 181954Z AUTO VRB04KT 10SM CLR 31/16 A3016 RMK AO2 LTG DSNT N SLP139 T03110156
KOLS 181854Z AUTO 30004KT 10SM CLR 30/17 A3018 RMK AO2 SLP148 T03000167
KOLS 181754Z AUTO 20004KT 10SM CLR 29/17 A3020 RMK AO2 SLP155 T02890172 10289 20194 58005
KOLS 181654Z AUTO 00000KT 10SM CLR 27/18 A3021 RMK AO2 SLP161 T02670183
KOLS 181554Z AUTO 16003KT 10SM CLR 26/19 A3021 RMK AO2 SLP165 T02560194
KOLS 181454Z AUTO 00000KT 10SM CLR 22/19 A3021 RMK AO2 SLP170 T02220194 53010
KOLS 181354Z AUTO 00000KT 10SM CLR 21/20 A3020 RMK AO2 SLP164 T02060200
KOLS 181254Z AUTO 19003KT 6SM BR CLR 19/19 A3019 RMK AO2 SLP157 T01940189
KOLS 181154Z AUTO 16005KT 7SM CLR 19/19 A3018 RMK AO2 SLP148 70020 T01940194 10222 20194 53003
KOLS 181054Z AUTO 17003KT 10SM CLR 20/19 A3017 RMK AO2 SLP146 T02000194
KOLS 180954Z AUTO 15004KT 10SM CLR 21/19 A3017 RMK AO2 SLP140 T02060194